Time;durP1;ratioP1;P1;durP2;ratioP2;P2;SDS_P1;SDS_P2;PMS_P1;PMS_P2;Temp;Humidity;BMP_temperature;BMP_pressure;BME280_temperature;BME280_humidity;BME280_pressure;Samples;Min_cycle;Max_cycle;Signal;HPM_P1;HPM_P2
2021/09/27 00:02:17;;;;;;;55.45;10.65;;;;;;;18.42;59.65;100797.00;5031526;28;20033;-77
2021/09/27 00:04:42;;;;;;;51.90;10.93;;;;;;;18.39;59.23;100793.47;5022727;28;20064;-75
2021/09/27 00:07:08;;;;;;;54.60;10.82;;;;;;;18.34;59.42;100795.16;5021486;28;20018;-74
2021/09/27 00:09:34;;;;;;;57.58;9.57;;;;;;;18.29;59.07;100791.63;5020725;28;20030;-78
2021/09/27 00:12:00;;;;;;;42.90;9.18;;;;;;;18.07;59.15;100791.41;5022496;28;20027;-76
2021/09/27 00:14:26;;;;;;;28.55;9.05;;;;;;;17.83;59.48;100773.69;5020572;28;20026;-77
2021/09/27 00:16:52;;;;;;;38.20;8.75;;;;;;;18.02;59.08;100782.63;5041671;28;20032;-76
2021/09/27 00:19:18;;;;;;;40.42;8.90;;;;;;;17.97;59.58;100789.53;5059612;28;20157;-78
2021/09/27 00:21:44;;;;;;;30.48;7.57;;;;;;;17.90;59.51;100792.03;5041271;28;20108;-77
2021/09/27 00:24:09;;;;;;;17.92;7.05;;;;;;;17.82;59.33;100793.69;5058866;28;20028;-76
2021/09/27 00:26:36;;;;;;;23.50;7.30;;;;;;;17.94;59.03;100786.06;5058388;28;20040;-75
2021/09/27 00:29:01;;;;;;;13.60;6.22;;;;;;;18.05;58.49;100782.69;5057227;28;20119;-80
2021/09/27 00:31:27;;;;;;;15.77;7.05;;;;;;;18.03;58.77;100787.88;5059126;28;20602;-76
2021/09/27 00:33:52;;;;;;;13.82;6.78;;;;;;;18.03;58.76;100789.59;5058563;28;20089;-79
2021/09/27 00:36:18;;;;;;;15.82;7.32;;;;;;;17.84;58.55;100758.00;5057395;28;20045;-76
2021/09/27 00:38:44;;;;;;;17.65;7.07;;;;;;;17.43;60.73;100784.47;5059449;28;20024;-75
2021/09/27 00:41:13;;;;;;;12.10;7.28;;;;;;;17.36;60.20;100786.13;5058241;28;20483;-79
2021/09/27 00:43:40;;;;;;;13.02;7.70;;;;;;;17.28;59.82;100767.78;5057487;28;20131;-75
2021/09/27 00:46:10;;;;;;;11.60;7.63;;;;;;;17.39;60.05;100778.34;5057588;28;20124;-78
2021/09/27 00:48:36;;;;;;;14.73;7.93;;;;;;;17.31;59.82;100777.38;5019188;28;20128;-76
2021/09/27 00:51:05;;;;;;;11.25;7.25;;;;;;;17.27;59.99;100776.44;5011166;28;20131;-76
2021/09/27 00:53:59;;;;;;;13.80;8.43;;;;;;;17.20;60.48;100781.56;5011234;28;20026;-80
2021/09/27 00:56:32;;;;;;;12.50;7.30;;;;;;;17.32;59.97;100773.00;4969680;28;20039;-74
2021/09/27 00:58:59;;;;;;;15.32;7.93;;;;;;;17.15;59.74;100737.13;4973110;28;20034;-79
2021/09/27 01:01:25;;;;;;;11.75;7.88;;;;;;;17.38;59.11;100762.66;4988001;28;20038;-78
2021/09/27 01:03:52;;;;;;;14.32;8.23;;;;;;;17.43;59.08;100763.59;4988153;28;20041;-73
2021/09/27 01:06:26;;;;;;;11.48;8.13;;;;;;;17.42;59.21;100767.97;4987684;28;20023;-73
2021/09/27 01:09:06;;;;;;;15.88;8.93;;;;;;;17.46;59.66;100774.97;4987773;28;20034;-75
2021/09/27 01:11:55;;;;;;;18.08;8.18;;;;;;;17.57;59.44;100761.16;4970580;28;20038;-73
2021/09/27 01:14:34;;;;;;;14.15;8.10;;;;;;;17.55;58.85;100753.31;4988471;28;20045;-75
2021/09/27 01:17:11;;;;;;;;;;;;;;;17.76;58.47;100770.13;4989055;28;20137;-69
2021/09/27 01:20:11;;;;;;;12.25;8.07;;;;;;;17.75;58.26;100768.38;4988155;28;19976;-73
2021/09/27 01:22:42;;;;;;;13.90;8.80;;;;;;;17.27;58.61;100707.72;4988175;28;20034;-72
2021/09/27 01:25:33;;;;;;;15.70;9.63;;;;;;;17.54;59.21;100779.41;4987813;28;20032;-73
2021/09/27 01:28:36;;;;;;;18.73;10.38;;;;;;;17.32;60.02;100776.53;4889555;29;20136;-72
2021/09/27 01:31:16;;;;;;;15.73;9.98;;;;;;;17.27;60.38;100776.44;4890170;29;20047;-75
2021/09/27 01:33:50;;;;;;;11.50;9.25;;;;;;;17.28;60.11;100774.69;4918840;29;20051;-72
2021/09/27 01:36:25;;;;;;;14.25;10.15;;;;;;;17.04;60.60;100780.44;4930083;29;20038;-73
2021/09/27 01:39:02;;;;;;;16.52;10.35;;;;;;;16.65;61.07;100741.56;4931099;29;20577;-75
2021/09/27 01:41:34;;;;;;;12.52;9.75;;;;;;;16.91;61.22;100772.44;4933630;29;20522;-72
2021/09/27 01:44:02;;;;;;;13.23;10.27;;;;;;;17.00;61.09;100770.78;4933471;29;20038;-73
2021/09/27 01:46:50;;;;;;;12.55;8.98;;;;;;;17.02;60.59;100769.97;4933627;29;20071;-72
2021/09/27 01:50:01;;;;;;;13.32;9.15;;;;;;;17.15;59.76;100768.44;4933555;29;20082;-71
2021/09/27 01:52:37;;;;;;;14.35;9.43;;;;;;;17.21;59.84;100775.47;4905246;29;20704;-72
2021/09/27 01:55:14;;;;;;;18.17;10.05;;;;;;;17.11;59.70;100775.34;4902080;29;20149;-72
2021/09/27 01:57:46;;;;;;;13.95;9.23;;;;;;;17.04;59.84;100770.88;4911436;29;20059;-76
2021/09/27 02:00:16;;;;;;;17.00;9.98;;;;;;;16.94;60.05;100756.81;4913253;29;20467;-78
2021/09/27 02:02:55;;;;;;;13.48;9.05;;;;;;;16.78;60.30;100757.41;4913679;29;20723;-77
2021/09/27 02:05:33;;;;;;;12.57;8.53;;;;;;;16.91;60.21;100775.03;4972339;28;20049;-79
2021/09/27 02:07:58;;;;;;;12.25;8.50;;;;;;;16.86;60.17;100784.50;5005844;28;20547;-78
2021/09/27 02:10:28;;;;;;;11.45;7.90;;;;;;;16.11;62.06;100790.13;5009226;28;20030;-71
2021/09/27 02:13:03;;;;;;;15.55;9.30;;;;;;;16.07;62.30;100769.19;5010512;28;20026;-72
2021/09/27 02:15:43;;;;;;;12.40;8.80;;;;;;;16.19;62.31;100779.84;5009270;28;20034;-73
2021/09/27 02:18:18;;;;;;;12.52;9.07;;;;;;;16.36;61.90;100781.88;5009689;28;20026;-72
2021/09/27 02:20:49;;;;;;;14.00;9.52;;;;;;;16.36;61.56;100789.69;5007633;28;20030;-73
2021/09/27 02:23:24;;;;;;;12.45;9.63;;;;;;;16.47;61.03;100785.56;5021160;28;20042;-76
2021/09/27 02:25:50;;;;;;;15.50;8.88;;;;;;;16.23;61.12;100747.78;5015231;28;20029;-77
2021/09/27 02:28:20;;;;;;;12.80;9.45;;;;;;;16.49;61.07;100773.44;5015410;28;20025;-80
2021/09/27 02:30:50;;;;;;;13.15;9.45;;;;;;;16.60;60.50;100782.31;5016061;28;20057;-78
2021/09/27 02:33:42;;;;;;;13.40;8.70;;;;;;;16.47;60.36;100749.06;5014178;28;20491;-76
2021/09/27 02:36:22;;;;;;;14.23;9.40;;;;;;;16.62;60.55;100783.22;5016032;28;20022;-78
2021/09/27 02:38:53;;;;;;;;;;;;;;;16.75;59.54;100780.84;5013614;28;20053;-78
2021/09/27 02:41:31;;;;;;;12.80;8.48;;;;;;;16.58;58.89;100738.84;5020441;28;20006;-77
2021/09/27 02:43:57;;;;;;;16.98;9.02;;;;;;;16.83;59.00;100776.59;5031737;28;20026;-76
2021/09/27 02:46:23;;;;;;;18.85;8.35;;;;;;;16.84;58.77;100769.66;5030199;28;20552;-78
2021/09/27 02:48:58;;;;;;;14.98;7.75;;;;;;;16.91;57.76;100777.66;5048147;28;20029;-77
2021/09/27 02:51:26;;;;;;;18.95;8.70;;;;;;;16.93;57.09;100772.44;5032281;28;20076;-78
2021/09/27 02:53:52;;;;;;;20.85;8.45;;;;;;;16.89;57.70;100775.84;5032531;28;20599;-76
2021/09/27 02:56:48;;;;;;;22.13;8.38;;;;;;;16.89;57.46;100778.44;5032297;28;20399;-74
2021/09/27 02:59:16;;;;;;;15.50;8.10;;;;;;;16.84;57.84;100775.75;5027329;28;20416;-73
2021/09/27 03:01:47;;;;;;;19.80;8.18;;;;;;;16.89;57.74;100774.09;5032343;28;20083;-75
2021/09/27 03:04:40;;;;;;;14.65;7.85;;;;;;;17.00;57.71;100784.72;5032349;28;20100;-76
2021/09/27 03:07:31;;;;;;;14.07;8.18;;;;;;;16.75;58.23;100773.00;5032042;28;20026;-74
2021/09/27 03:10:14;;;;;;;12.45;7.85;;;;;;;16.75;59.23;100775.63;5032281;28;20029;-76
2021/09/27 03:12:42;;;;;;;10.38;7.20;;;;;;;16.56;60.50;100782.22;5032489;28;20563;-73
2021/09/27 03:15:26;;;;;;;13.60;7.30;;;;;;;16.31;61.32;100782.69;5031914;28;20499;-73
2021/09/27 03:18:24;;;;;;;13.13;7.00;;;;;;;16.00;62.03;100758.66;5031930;28;20554;-73
2021/09/27 03:21:02;;;;;;;14.32;8.50;;;;;;;16.01;62.75;100780.34;5032139;28;20116;-74
2021/09/27 03:23:45;;;;;;;14.02;7.55;;;;;;;16.00;61.05;100776.03;5031757;28;20036;-73
2021/09/27 03:26:47;;;;;;;16.02;8.00;;;;;;;15.86;58.09;100775.72;5031981;28;20036;-75
2021/09/27 03:29:15;;;;;;;19.17;8.27;;;;;;;15.89;58.94;100778.41;5031636;28;20027;-76
2021/09/27 03:31:58;;;;;;;15.15;7.55;;;;;;;15.92;59.25;100781.06;5031909;28;20041;-73
2021/09/27 03:34:58;;;;;;;16.25;8.13;;;;;;;16.04;59.97;100779.53;5031647;28;20023;-73
2021/09/27 03:37:35;;;;;;;17.52;8.07;;;;;;;16.06;59.41;100785.66;5031648;28;20091;-73
2021/09/27 03:40:24;;;;;;;33.40;7.72;;;;;;;15.94;60.03;100787.19;5025469;28;20029;-74
2021/09/27 03:42:55;;;;;;;18.23;8.10;;;;;;;15.72;61.88;100787.56;5031490;28;20121;-76
2021/09/27 03:45:41;;;;;;;15.75;8.02;;;;;;;15.27;63.76;100800.47;5027852;28;20029;-76
2021/09/27 03:48:18;;;;;;;15.68;8.52;;;;;;;15.09;64.75;100787.91;5030288;28;20122;-75
2021/09/27 03:50:49;;;;;;;12.35;7.97;;;;;;;15.30;64.21;100791.84;5018478;28;20094;-75
2021/09/27 03:53:25;;;;;;;14.43;7.85;;;;;;;15.30;64.39;100784.03;5011712;28;20030;-78
2021/09/27 03:56:12;;;;;;;14.35;8.68;;;;;;;15.39;64.38;100796.38;5011284;28;20018;-79
2021/09/27 03:58:49;;;;;;;18.38;8.18;;;;;;;15.49;64.02;100793.16;5021520;28;20083;-77
2021/09/27 04:01:26;;;;;;;15.35;7.80;;;;;;;15.45;63.82;100773.09;5025131;28;20029;-76
2021/09/27 04:04:09;;;;;;;11.75;7.95;;;;;;;15.60;63.35;100773.44;5028049;28;20030;-77
2021/09/27 04:06:58;;;;;;;20.17;8.45;;;;;;;15.72;62.51;100785.81;5023525;28;20523;-75
2021/09/27 04:10:06;;;;;;;20.23;8.93;;;;;;;15.69;61.44;100783.16;5028082;28;20492;-75
2021/09/27 04:12:45;;;;;;;16.98;8.05;;;;;;;15.49;61.44;100783.59;5019596;28;20272;-76
2021/09/27 04:15:49;;;;;;;17.08;9.27;;;;;;;15.51;61.90;100788.84;5029946;28;20369;-76
2021/09/27 04:18:21;;;;;;;21.83;9.27;;;;;;;15.57;61.54;100786.38;5020651;28;20056;-78
2021/09/27 04:21:27;;;;;;;23.33;8.80;;;;;;;15.38;61.55;100743.47;5025778;28;20022;-77
2021/09/27 04:24:18;;;;;;;25.83;9.88;;;;;;;15.57;61.37;100775.97;5030670;28;20053;-75
2021/09/27 04:27:02;;;;;;;19.90;8.25;;;;;;;15.55;61.59;100780.25;5024641;28;20542;-78
2021/09/27 04:30:01;;;;;;;19.88;8.35;;;;;;;15.55;61.62;100785.44;5030886;28;20033;-75
2021/09/27 04:33:08;;;;;;;22.25;8.85;;;;;;;15.25;63.31;100780.47;5031198;28;20025;-80
2021/09/27 04:35:44;;;;;;;21.50;8.48;;;;;;;15.31;63.04;100789.25;5027395;28;20121;-76
2021/09/27 04:38:12;;;;;;;19.23;9.13;;;;;;;15.20;63.97;100789.03;5030756;28;20021;-74
2021/09/27 04:40:46;;;;;;;22.20;9.35;;;;;;;15.18;64.31;100792.47;5030678;28;20563;-76
2021/09/27 04:43:47;;;;;;;18.38;9.35;;;;;;;15.01;65.26;100795.50;5030560;28;20026;-76
2021/09/27 04:46:21;;;;;;;20.10;8.90;;;;;;;14.76;66.38;100800.97;5030618;28;20087;-77
2021/09/27 04:48:50;;;;;;;24.73;8.77;;;;;;;14.28;67.51;100759.03;5046126;28;20100;-76
2021/09/27 04:51:43;;;;;;;19.40;8.80;;;;;;;14.22;68.46;100803.88;5030797;28;20103;-75
2021/09/27 04:54:11;;;;;;;13.07;7.93;;;;;;;14.11;69.02;100796.66;5025870;28;20104;-75
2021/09/27 04:57:13;;;;;;;18.83;8.02;;;;;;;14.11;68.99;100801.84;5030505;28;20475;-75
2021/09/27 04:59:57;;;;;;;29.30;17.77;;;;;;;14.24;68.87;100803.91;5030482;28;20025;-77
2021/09/27 05:02:34;;;;;;;161.48;89.05;;;;;;;13.77;70.20;100816.44;5023655;28;20052;-77
2021/09/27 05:05:08;;;;;;;187.60;104.70;;;;;;;13.77;70.45;100813.84;5030733;28;20118;-76
2021/09/27 05:08:24;;;;;;;173.02;98.45;;;;;;;14.03;69.91;100819.78;5031028;28;20487;-77
2021/09/27 05:10:52;;;;;;;42.60;25.08;;;;;;;13.69;70.73;100824.00;4973061;28;20033;-77
2021/09/27 05:13:18;;;;;;;91.60;54.58;;;;;;;13.69;70.94;100821.41;4990197;28;20121;-76
2021/09/27 05:16:12;;;;;;;166.82;102.72;;;;;;;13.64;71.27;100820.38;4992825;28;20121;-77
2021/09/27 05:18:44;;;;;;;152.05;94.28;;;;;;;14.04;69.92;100814.66;4992535;28;21707;-77
2021/09/27 05:21:31;;;;;;;75.18;47.80;;;;;;;14.28;69.09;100810.97;4992717;28;20043;-77
2021/09/27 05:24:14;;;;;;;26.17;14.52;;;;;;;14.29;69.28;100817.91;4992553;28;20034;-73
2021/09/27 05:27:04;;;;;;;21.08;10.80;;;;;;;14.18;68.62;100789.06;4992873;28;20100;-74
2021/09/27 05:29:44;;;;;;;12.23;7.38;;;;;;;14.63;67.67;100818.81;4992973;28;20049;-72
2021/09/27 05:32:16;;;;;;;15.43;8.00;;;;;;;14.80;67.24;100834.00;4992603;28;20499;-73
2021/09/27 05:35:05;;;;;;;13.15;6.57;;;;;;;14.48;67.92;100836.59;4992391;28;20085;-74
2021/09/27 05:37:33;;;;;;;;;;;;;;;14.37;68.75;100833.72;4992754;28;20108;-77
2021/09/27 05:40:05;;;;;;;21.77;7.65;;;;;;;14.60;68.38;100810.06;4992442;28;20443;-77
2021/09/27 05:42:55;;;;;;;18.75;7.72;;;;;;;14.70;67.69;100838.06;4992167;28;20030;-75
2021/09/27 05:45:33;;;;;;;21.67;8.35;;;;;;;15.10;67.09;100835.59;4993548;28;20041;-74
2021/09/27 05:48:31;;;;;;;76.53;43.92;;;;;;;15.50;65.82;100831.31;5020504;28;20025;-75
2021/09/27 05:51:37;;;;;;;192.73;111.18;;;;;;;15.38;65.42;100837.13;5030869;28;20054;-74
2021/09/27 05:54:02;;;;;;;159.85;85.35;;;;;;;15.41;66.14;100841.53;4991697;28;20035;-73
2021/09/27 05:56:36;;;;;;;57.42;31.38;;;;;;;15.57;65.37;100809.78;4991702;28;20555;-74
2021/09/27 05:59:11;;;;;;;60.70;33.42;;;;;;;15.84;64.86;100787.84;4992092;28;20049;-74
2021/09/27 06:01:40;;;;;;;31.30;17.20;;;;;;;16.41;64.03;100816.72;4975749;28;20413;-74
2021/09/27 06:04:24;;;;;;;17.15;9.48;;;;;;;16.61;63.59;100814.47;4991927;28;20042;-76
2021/09/27 06:07:12;;;;;;;15.65;9.15;;;;;;;16.75;63.46;100812.13;4988664;28;20540;-74
2021/09/27 06:09:49;;;;;;;14.20;8.98;;;;;;;16.79;63.23;100820.00;4992129;28;20509;-74
2021/09/27 06:12:29;;;;;;;17.17;7.90;;;;;;;16.88;62.88;100816.66;4991920;28;20046;-74
2021/09/27 06:14:58;;;;;;;21.25;9.00;;;;;;;17.05;62.56;100810.91;4991475;28;20088;-73
2021/09/27 06:17:49;;;;;;;19.42;8.52;;;;;;;17.34;61.58;100811.31;4991608;28;20423;-73
2021/09/27 06:20:26;;;;;;;17.63;7.50;;;;;;;17.45;61.06;100816.72;4991604;28;20669;-75
2021/09/27 06:23:13;;;;;;;16.42;7.47;;;;;;;17.53;61.47;100819.41;4991902;28;20081;-74
2021/09/27 06:25:42;;;;;;;20.20;9.38;;;;;;;17.68;60.94;100824.84;4990265;28;20035;-77
2021/09/27 06:28:32;;;;;;;25.30;10.05;;;;;;;17.82;60.80;100824.16;4991702;28;20533;-77
2021/09/27 06:31:09;;;;;;;47.55;17.45;;;;;;;17.85;60.93;100796.34;5014949;28;20595;-76
2021/09/27 06:33:52;;;;;;;37.20;13.00;;;;;;;17.84;61.13;100812.00;5032811;28;20029;-75
2021/09/27 06:36:24;;;;;;;38.95;13.07;;;;;;;17.83;61.56;100818.97;5021434;28;20041;-76
2021/09/27 06:38:55;;;;;;;43.30;11.93;;;;;;;17.67;62.23;100828.34;5032806;28;20169;-76
2021/09/27 06:41:24;;;;;;;41.75;12.77;;;;;;;17.89;61.75;100819.00;5033028;28;20037;-77
2021/09/27 06:43:50;;;;;;;31.80;10.73;;;;;;;17.88;61.07;100819.91;5032720;28;20472;-75
2021/09/27 06:46:16;;;;;;;38.25;10.23;;;;;;;17.77;61.05;100816.28;5032992;28;20917;-76
2021/09/27 06:48:41;;;;;;;36.70;11.73;;;;;;;17.88;61.58;100812.06;5033249;28;20123;-77
2021/09/27 06:51:07;;;;;;;34.42;9.68;;;;;;;17.85;61.23;100811.16;5032951;28;20084;-76
2021/09/27 06:53:32;;;;;;;27.40;10.70;;;;;;;17.76;61.92;100785.78;5032789;28;20025;-76
2021/09/27 06:55:59;;;;;;;34.97;9.38;;;;;;;18.14;60.78;100814.13;5032428;28;20186;-80
2021/09/27 06:58:25;;;;;;;28.08;9.48;;;;;;;18.44;60.49;100812.69;5020466;28;20025;-77
2021/09/27 07:00:53;;;;;;;24.23;8.48;;;;;;;18.58;59.47;100807.63;5025677;28;20052;-77
2021/09/27 07:03:18;;;;;;;26.83;9.20;;;;;;;18.74;57.94;100772.00;5032526;28;20025;-77
2021/09/27 07:05:44;;;;;;;19.10;9.45;;;;;;;18.97;57.81;100798.38;5047820;28;20036;-77
2021/09/27 07:08:10;;;;;;;19.85;8.15;;;;;;;19.01;57.17;100770.50;5047825;28;20491;-78
2021/09/27 07:10:35;;;;;;;20.73;7.82;;;;;;;19.39;56.22;100812.63;5032752;28;20391;-79
2021/09/27 07:13:01;;;;;;;15.10;6.32;;;;;;;19.55;54.77;100799.59;5032485;28;20052;-76
2021/09/27 07:15:26;;;;;;;19.52;6.65;;;;;;;19.76;54.42;100805.84;5032421;28;20022;-77
2021/09/27 07:17:52;;;;;;;16.08;8.05;;;;;;;19.67;54.45;100809.28;5032486;28;20037;-76
2021/09/27 07:20:22;;;;;;;16.05;6.47;;;;;;;19.65;55.85;100825.00;5030876;28;20025;-76
2021/09/27 07:22:48;;;;;;;14.20;6.78;;;;;;;19.86;53.91;100818.13;5032007;28;20439;-75
2021/09/27 07:25:15;;;;;;;13.55;5.53;;;;;;;19.67;52.70;100823.25;5025148;28;20033;-76
2021/09/27 07:27:41;;;;;;;10.05;5.20;;;;;;;19.89;50.97;100820.78;5031673;28;20024;-76
2021/09/27 07:30:09;;;;;;;12.98;4.90;;;;;;;19.69;50.14;100792.72;5025438;28;20116;-76
2021/09/27 07:32:34;;;;;;;10.82;4.20;;;;;;;19.68;49.38;100824.16;5032136;28;20021;-77
2021/09/27 07:35:00;;;;;;;9.40;4.60;;;;;;;19.87;50.14;100814.66;5031839;28;20036;-76
2021/09/27 07:37:26;;;;;;;11.50;5.43;;;;;;;20.08;49.68;100808.59;5031174;28;20029;-75
2021/09/27 07:39:51;;;;;;;14.27;4.90;;;;;;;20.09;50.20;100799.88;5031561;28;20033;-76
2021/09/27 07:42:17;;;;;;;18.85;5.30;;;;;;;20.42;50.13;100828.81;5031337;28;20428;-76
2021/09/27 07:44:42;;;;;;;10.43;4.35;;;;;;;20.40;49.87;100815.69;5031654;28;20075;-77
2021/09/27 07:47:08;;;;;;;18.08;5.43;;;;;;;20.67;50.71;100819.22;5020615;28;20038;-78
2021/09/27 07:49:33;;;;;;;12.65;5.70;;;;;;;21.02;50.71;100826.25;5030867;28;20047;-76
2021/09/27 07:51:59;;;;;;;17.15;5.35;;;;;;;21.24;48.48;100828.88;5031450;28;20029;-75
2021/09/27 07:54:25;;;;;;;15.82;5.40;;;;;;;21.43;48.00;100812.22;5031220;28;20037;-75
2021/09/27 07:56:51;;;;;;;16.33;5.03;;;;;;;21.60;47.27;100812.16;5029060;28;20029;-75
2021/09/27 07:59:17;;;;;;;14.93;4.68;;;;;;;21.68;46.80;100816.53;5031580;28;20433;-75
2021/09/27 08:01:42;;;;;;;18.92;5.28;;;;;;;21.56;47.43;100771.03;5024474;28;20037;-78
2021/09/27 08:04:09;;;;;;;12.88;5.38;;;;;;;22.00;47.15;100812.91;5030320;28;20013;-77
2021/09/27 08:06:35;;;;;;;13.68;5.05;;;;;;;22.12;47.06;100803.19;5031221;28;20040;-78
2021/09/27 08:09:04;;;;;;;13.07;4.93;;;;;;;22.19;47.11;100800.53;5031498;28;20025;-78
2021/09/27 08:11:30;;;;;;;14.85;5.18;;;;;;;22.32;43.98;100804.84;5018555;28;20038;-79
2021/09/27 08:13:56;;;;;;;11.10;4.47;;;;;;;22.48;42.52;100799.50;5030911;28;20090;-76
2021/09/27 08:16:22;;;;;;;14.98;4.50;;;;;;;22.62;43.88;100801.13;5031025;28;20112;-76
2021/09/27 08:18:47;;;;;;;13.68;4.50;;;;;;;22.75;44.19;100791.41;5031008;28;20026;-77
2021/09/27 08:21:17;;;;;;;11.68;4.40;;;;;;;22.82;40.94;100789.59;5030885;28;20134;-75
2021/09/27 08:23:43;;;;;;;14.40;4.65;;;;;;;22.86;40.55;100786.03;5027060;28;20029;-77
2021/09/27 08:26:09;;;;;;;23.50;4.97;;;;;;;22.80;40.74;100758.91;5021033;28;20420;-78
2021/09/27 08:28:38;;;;;;;12.55;4.40;;;;;;;23.05;41.82;100789.38;5025895;28;20072;-77
2021/09/27 08:31:06;;;;;;;15.20;5.03;;;;;;;23.14;42.28;100790.16;5017934;28;20022;-77
2021/09/27 08:33:32;;;;;;;8.70;4.18;;;;;;;23.16;39.50;100793.69;5030936;28;20044;-76
2021/09/27 08:36:00;;;;;;;8.27;4.03;;;;;;;23.12;39.78;100786.69;5031086;28;20392;-79
2021/09/27 08:38:27;;;;;;;13.75;4.78;;;;;;;23.02;40.03;100763.06;5030997;28;20024;-75
2021/09/27 08:40:58;;;;;;;8.85;4.32;;;;;;;23.15;39.48;100770.84;5030871;28;20092;-74
2021/09/27 08:43:31;;;;;;;13.68;4.38;;;;;;;23.33;39.24;100775.94;5031015;28;20112;-75
2021/09/27 08:46:04;;;;;;;8.07;3.78;;;;;;;23.40;39.17;100776.75;5031049;28;20483;-75
2021/09/27 08:48:41;;;;;;;10.60;5.28;;;;;;;23.23;38.94;100790.97;5032877;28;20029;-75
2021/09/27 08:51:07;;;;;;;12.40;5.22;;;;;;;23.29;39.15;100781.25;5034245;28;20141;-79
2021/09/27 08:53:40;;;;;;;12.95;4.53;;;;;;;23.31;39.87;100771.59;5035072;28;20458;-75
2021/09/27 08:56:37;;;;;;;15.18;4.70;;;;;;;23.14;39.28;100771.72;5034788;28;20025;-75
2021/09/27 08:59:17;;;;;;;15.80;4.43;;;;;;;23.07;40.45;100734.06;4972742;28;20110;-76
2021/09/27 09:02:12;;;;;;;;;;;;;;;23.26;39.77;100764.63;4973301;28;20026;-79
2021/09/27 09:04:50;;;;;;;9.63;4.32;;;;;;;23.33;38.84;100770.69;4915755;29;19907;-75
2021/09/27 09:07:19;;;;;;;13.17;4.50;;;;;;;23.40;40.22;100764.47;4916102;29;20131;-76
2021/09/27 09:09:52;;;;;;;11.40;4.83;;;;;;;23.24;39.05;100763.75;4915431;29;20036;-76
2021/09/27 09:12:32;;;;;;;23.73;6.93;;;;;;;23.52;39.14;100738.84;4915219;29;20295;-76
2021/09/27 09:15:00;;;;;;;17.88;7.30;;;;;;;23.90;38.72;100753.28;4915587;29;20131;-75
2021/09/27 09:18:06;;;;;;;15.43;6.20;;;;;;;24.17;37.80;100753.81;4915355;29;20482;-78
2021/09/27 09:20:56;;;;;;;17.10;5.80;;;;;;;24.34;37.17;100750.94;4914460;29;20040;-78
2021/09/27 09:23:31;;;;;;;19.27;7.50;;;;;;;24.39;37.67;100749.94;4915650;29;20046;-77
2021/09/27 09:25:59;;;;;;;13.80;5.88;;;;;;;24.17;39.54;100717.75;4914836;29;20035;-77
2021/09/27 09:28:25;;;;;;;24.30;7.18;;;;;;;24.51;38.82;100740.97;4915770;29;20055;-77
2021/09/27 09:30:56;;;;;;;16.77;7.68;;;;;;;24.66;38.10;100718.75;4915082;29;20032;-77
2021/09/27 09:33:35;;;;;;;14.82;6.15;;;;;;;24.63;38.11;100734.59;4915204;29;20546;-78
2021/09/27 09:36:00;;;;;;;24.33;8.35;;;;;;;24.85;38.33;100726.34;4948828;28;20535;-78
2021/09/27 09:38:26;;;;;;;22.05;7.45;;;;;;;24.94;37.90;100720.88;4992313;28;20039;-78
2021/09/27 09:40:55;;;;;;;24.20;7.28;;;;;;;25.19;37.53;100717.78;5009801;28;20037;-85
2021/09/27 09:43:30;;;;;;;12.95;5.55;;;;;;;25.38;37.02;100714.78;5034118;28;20053;-84
2021/09/27 09:46:28;;;;;;;15.77;5.30;;;;;;;25.54;36.61;100716.19;5033763;28;20030;-78
2021/09/27 09:49:02;;;;;;;17.00;5.80;;;;;;;25.51;36.30;100682.78;5034001;28;20033;-79
2021/09/27 09:51:44;;;;;;;16.40;5.97;;;;;;;25.62;37.85;100709.00;5033164;28;20523;-78
2021/09/27 09:54:12;;;;;;;15.00;5.45;;;;;;;25.84;36.93;100712.03;5030506;28;20041;-77
2021/09/27 09:56:40;;;;;;;15.25;5.28;;;;;;;25.67;36.65;100704.47;5048739;28;20036;-79
2021/09/27 09:59:37;;;;;;;11.43;5.45;;;;;;;25.89;35.79;100706.59;5033203;28;20017;-80
2021/09/27 10:02:14;;;;;;;11.35;4.95;;;;;;;25.93;35.02;100705.66;4969897;28;20113;-92
2021/09/27 10:04:46;;;;;;;11.05;5.35;;;;;;;25.84;35.19;100667.06;4956001;28;20118;-93
2021/09/27 10:07:16;;;;;;;10.63;4.78;;;;;;;26.11;35.13;100679.69;4955758;28;20449;-92
2021/09/27 10:09:51;;;;;;;;;;;;;;;26.19;35.33;100701.53;4957028;28;20026;-92
2021/09/27 10:12:48;;;;;;;14.32;5.35;;;;;;;26.15;35.92;100694.59;4957102;28;19914;-93
2021/09/27 10:15:38;;;;;;;11.75;5.25;;;;;;;26.19;35.04;100658.34;4958209;28;20075;-91
2021/09/27 10:18:14;;;;;;;15.02;5.63;;;;;;;26.42;35.46;100655.13;4954171;28;20035;-84
2021/09/27 10:20:51;;;;;;;19.83;5.95;;;;;;;26.84;34.69;100683.16;4963226;28;20041;-86
2021/09/27 10:23:28;;;;;;;15.05;5.50;;;;;;;26.77;34.12;100648.88;4970800;28;20066;-88
2021/09/27 10:25:53;;;;;;;13.32;5.57;;;;;;;26.94;34.07;100689.94;4953439;28;20042;-88
2021/09/27 10:28:21;;;;;;;12.00;5.15;;;;;;;27.02;33.40;100679.13;4971472;28;20027;-87
2021/09/27 10:30:55;;;;;;;11.48;5.07;;;;;;;26.98;33.71;100688.06;4971243;28;20035;-85
2021/09/27 10:33:27;;;;;;;17.05;4.90;;;;;;;27.00;33.70;100665.91;4971490;28;20531;-86
2021/09/27 10:35:57;;;;;;;12.15;5.22;;;;;;;27.07;33.71;100669.28;4959122;28;20481;-86
2021/09/27 10:38:26;;;;;;;14.32;4.85;;;;;;;27.23;33.44;100667.06;4990478;28;20033;-87
2021/09/27 10:40:53;;;;;;;13.43;5.13;;;;;;;27.37;33.32;100661.34;5028667;28;20038;-87
2021/09/27 10:43:22;;;;;;;10.65;5.38;;;;;;;27.52;33.89;100654.72;5027663;28;20026;-87
2021/09/27 10:46:01;;;;;;;14.13;6.05;;;;;;;27.69;33.98;100651.53;5027075;28;20051;-86
2021/09/27 10:48:29;;;;;;;11.85;4.65;;;;;;;27.67;32.96;100645.44;5022008;28;20041;-76
2021/09/27 10:51:01;;;;;;;10.02;5.10;;;;;;;27.67;32.76;100643.63;5032972;28;20053;-74
2021/09/27 10:53:44;;;;;;;9.75;4.75;;;;;;;27.54;32.74;100644.91;5033088;28;20036;-80
2021/09/27 10:56:24;;;;;;;13.90;4.93;;;;;;;27.67;32.80;100637.47;5027765;28;20068;-72
2021/09/27 10:59:12;;;;;;;15.80;5.60;;;;;;;27.64;34.79;100632.25;5013851;28;20022;-71
2021/09/27 11:01:41;;;;;;;15.00;5.17;;;;;;;27.60;35.37;100632.34;5029010;28;20045;-76
2021/09/27 11:04:14;;;;;;;11.48;5.00;;;;;;;27.62;35.26;100619.03;5029621;28;20506;-74
2021/09/27 11:06:55;;;;;;;12.15;5.18;;;;;;;27.73;33.32;100624.88;5027963;28;20037;-74
2021/09/27 11:09:36;;;;;;;8.98;4.60;;;;;;;27.83;33.50;100622.78;5028500;28;20164;-77
2021/09/27 11:12:16;;;;;;;10.38;4.65;;;;;;;27.95;34.97;100613.53;5027240;28;20124;-76
2021/09/27 11:14:49;;;;;;;13.52;4.63;;;;;;;28.10;32.75;100612.19;5029001;28;20041;-75
2021/09/27 11:17:29;;;;;;;11.63;4.90;;;;;;;28.25;33.51;100610.78;5028106;28;20132;-80
2021/09/27 11:20:37;;;;;;;11.55;4.68;;;;;;;28.30;33.43;100605.34;5027399;28;20052;-76
2021/09/27 11:23:36;;;;;;;13.15;5.03;;;;;;;28.47;32.98;100605.59;5026359;28;20061;-79
2021/09/27 11:26:19;;;;;;;11.20;5.57;;;;;;;28.39;33.24;100573.16;5026539;28;20080;-71
2021/09/27 11:29:19;;;;;;;11.15;4.72;;;;;;;28.51;32.60;100588.66;5029006;28;20063;-72
2021/09/27 11:31:46;;;;;;;9.32;4.70;;;;;;;28.54;32.19;100585.88;5024755;28;20030;-73
2021/09/27 11:34:32;;;;;;;17.45;5.97;;;;;;;28.65;31.96;100582.84;5014126;28;20492;-72
2021/09/27 11:37:18;;;;;;;9.90;5.47;;;;;;;28.40;32.16;100567.78;5020381;28;20025;-73
2021/09/27 11:39:51;;;;;;;14.30;4.85;;;;;;;28.17;32.87;100575.72;5028432;28;20045;-73
2021/09/27 11:42:20;;;;;;;14.70;5.38;;;;;;;28.41;34.24;100572.19;5030753;28;20065;-71
2021/09/27 11:45:40;;;;;;;10.50;5.05;;;;;;;28.67;34.27;100566.84;5045247;28;20416;-74
2021/09/27 11:48:10;;;;;;;9.23;4.72;;;;;;;28.76;32.07;100568.31;4947611;29;20101;-73
2021/09/27 11:50:48;;;;;;;12.30;5.25;;;;;;;28.80;34.77;100573.47;4949364;29;20146;-72
2021/09/27 11:53:32;;;;;;;11.43;4.60;;;;;;;28.73;31.91;100558.69;4950895;29;20035;-76
2021/09/27 11:56:06;;;;;;;11.35;4.40;;;;;;;28.78;31.75;100551.41;4906442;29;20076;-72
2021/09/27 11:58:52;;;;;;;14.02;4.60;;;;;;;28.94;31.67;100556.16;4905265;29;20067;-77